Time,TemperatureF,DewpointF,PressureIn,WindDirection,WindDirectionDegrees,WindSpeedMPH,WindSpeedGustMPH,Humidity,HourlyPrecipIn,Conditions,Clouds,dailyrainin,SoftwareType,DateUTC
2013-02-27 07:00:00,37.7,36.4,29.95,SSE,158,3.0,11.0,95,0.08,,---,0.22,VWS V14.01,2013-02-27 12:00:00,
2013-02-27 07:59:00,38.5,36.9,29.92,WSW,251,3.0,3.0,94,0.09,,---,0.26,VWS V14.01,2013-02-27 12:59:00,
2013-02-27 08:00:00,38.5,36.9,29.92,WSW,252,6.0,9.0,94,0.09,,---,0.26,VWS V14.01,2013-02-27 13:00:00,
2013-02-27 08:04:00,38.5,36.9,29.92,WSW,244,4.0,19.0,94,0.04,,---,0.26,VWS V14.01,2013-02-27 13:04:00,
2013-02-27 08:09:00,38.6,37.0,29.91,SW,227,6.0,19.0,94,0.04,,---,0.26,VWS V14.01,2013-02-27 13:09:00,
2013-02-27 08:14:00,38.7,37.1,29.91,WSW,239,4.0,19.0,94,0.05,,---,0.27,VWS V14.01,2013-02-27 13:14:00,
2013-02-27 08:19:00,38.7,37.1,29.91,SSW,207,4.0,19.0,94,0.05,,---,0.27,VWS V14.01,2013-02-27 13:19:00,
2013-02-27 08:24:00,38.8,37.2,29.92,WSW,244,6.0,19.0,94,0.05,,---,0.27,VWS V14.01,2013-02-27 13:24:00,
2013-02-27 08:29:00,38.8,37.2,29.91,WSW,244,3.0,19.0,94,0.06,,---,0.28,VWS V14.01,2013-02-27 13:29:00,
2013-02-27 08:34:00,38.9,37.3,29.90,WSW,239,5.0,13.0,94,0.02,,---,0.28,VWS V14.01,2013-02-27 13:34:00,
2013-02-27 08:39:00,38.9,37.3,29.90,WSW,249,13.0,14.0,94,0.03,,---,0.29,VWS V14.01,2013-02-27 13:39:00,
2013-02-27 08:44:00,39.0,37.4,29.89,WSW,254,7.0,15.0,94,0.04,,---,0.30,VWS V14.01,2013-02-27 13:44:00,
2013-02-27 08:49:00,39.0,37.4,29.89,WSW,254,4.0,15.0,94,0.04,,---,0.30,VWS V14.01,2013-02-27 13:49:00,
2013-02-27 08:54:00,39.1,37.5,29.89,WSW,252,7.0,15.0,94,0.04,,---,0.30,VWS V14.01,2013-02-27 13:54:00,
2013-02-27 08:59:00,39.2,37.6,29.89,SW,225,4.0,15.0,94,0.05,,---,0.31,VWS V14.01,2013-02-27 13:59:00,
2013-02-27 09:04:00,39.2,37.3,29.89,WSW,238,4.0,13.0,93,0.05,,---,0.31,VWS V14.01,2013-02-27 14:04:00,
2013-02-27 09:09:00,39.2,37.3,29.89,WSW,244,0.0,14.0,93,0.05,,---,0.31,VWS V14.01,2013-02-27 14:09:00,
2013-02-27 09:14:00,39.2,37.3,29.89,WSW,246,5.0,14.0,93,0.06,,---,0.32,VWS V14.01,2013-02-27 14:14:00,
2013-02-27 09:19:00,39.2,37.3,29.88,SW,234,6.0,14.0,93,0.06,,---,0.32,VWS V14.01,2013-02-27 14:19:00,
2013-02-27 09:24:00,39.2,37.3,29.88,West,262,6.0,15.0,93,0.07,,---,0.33,VWS V14.01,2013-02-27 14:24:00,
2013-02-27 09:29:00,39.2,37.3,29.87,WSW,244,6.0,15.0,93,0.08,,---,0.34,VWS V14.01,2013-02-27 14:29:00,
2013-02-27 09:34:00,39.2,37.3,29.86,SW,229,10.0,16.0,93,0.07,,---,0.35,VWS V14.01,2013-02-27 14:34:00,
2013-02-27 09:39:00,39.2,37.3,29.86,WSW,252,4.0,16.0,93,0.07,,---,0.35,VWS V14.01,2013-02-27 14:39:00,
2013-02-27 09:45:00,39.2,37.3,29.86,WSW,246,3.0,16.0,93,0.08,,---,0.36,VWS V14.01,2013-02-27 14:45:00,
2013-02-27 09:50:00,39.1,37.2,29.86,West,262,4.0,16.0,93,0.08,,---,0.36,VWS V14.01,2013-02-27 14:50:00,
2013-02-27 09:55:00,39.2,37.3,29.86,WNW,295,12.0,18.0,93,0.10,,---,0.38,VWS V14.01,2013-02-27 14:55:00,
2013-02-27 10:00:00,39.2,37.3,29.86,WSW,253,10.0,18.0,93,0.10,,---,0.38,VWS V14.01,2013-02-27 15:00:00,
2013-02-27 10:05:00,39.3,37.5,29.86,West,262,6.0,17.0,93,0.08,,---,0.39,VWS V14.01,2013-02-27 15:05:00,
2013-02-27 10:10:00,39.3,37.5,29.85,WSW,252,19.0,21.0,93,0.09,,---,0.40,VWS V14.01,2013-02-27 15:10:00,
2013-02-27 10:15:00,39.5,37.7,29.85,West,263,4.0,21.0,93,0.09,,---,0.40,VWS V14.01,2013-02-27 15:15:00,
2013-02-27 10:20:00,39.5,37.7,29.85,West,259,6.0,21.0,93,0.09,,---,0.40,VWS V14.01,2013-02-27 15:20:00,
2013-02-27 10:25:00,39.5,37.7,29.85,West,269,12.0,21.0,93,0.10,,---,0.41,VWS V14.01,2013-02-27 15:25:00,
2013-02-27 10:30:00,39.5,37.7,29.84,West,273,9.0,21.0,93,0.11,,---,0.42,VWS V14.01,2013-02-27 15:30:00,
2013-02-27 10:35:00,39.6,37.8,29.84,West,264,4.0,21.0,93,0.09,,---,0.43,VWS V14.01,2013-02-27 15:35:00,
2013-02-27 10:40:00,39.5,37.7,29.84,WSW,238,9.0,21.0,93,0.10,,---,0.44,VWS V14.01,2013-02-27 15:40:00,
2013-02-27 10:45:00,39.5,37.7,29.83,SSW,210,4.0,21.0,93,0.10,,---,0.44,VWS V14.01,2013-02-27 15:45:00,
2013-02-27 10:50:00,39.6,37.8,29.83,WSW,257,11.0,23.0,93,0.11,,---,0.45,VWS V14.01,2013-02-27 15:50:00,
2013-02-27 10:55:00,39.5,37.7,29.83,WSW,257,6.0,23.0,93,0.12,,---,0.46,VWS V14.01,2013-02-27 15:55:00,
2013-02-27 11:00:00,39.5,37.7,29.83,SSW,212,4.0,23.0,93,0.13,,---,0.47,VWS V14.01,2013-02-27 16:00:00,
2013-02-27 11:05:00,39.5,37.7,29.83,West,281,4.0,13.0,93,0.08,,---,0.47,VWS V14.01,2013-02-27 16:05:00,
2013-02-27 11:10:00,39.5,37.7,29.82,WSW,249,7.0,13.0,93,0.09,,---,0.48,VWS V14.01,2013-02-27 16:10:00,
2013-02-27 11:15:00,39.5,37.7,29.82,WSW,248,10.0,15.0,93,0.10,,---,0.49,VWS V14.01,2013-02-27 16:15:00,
2013-02-27 11:20:00,39.6,37.8,29.82,WSW,253,6.0,16.0,93,0.11,,---,0.50,VWS V14.01,2013-02-27 16:20:00,
2013-02-27 11:25:00,39.6,37.8,29.81,SW,229,9.0,23.0,93,0.11,,---,0.50,VWS V14.01,2013-02-27 16:25:00,
2013-02-27 11:30:00,39.6,37.8,29.81,West,265,0.0,2.0,93,0.08,,---,0.50,VWS V14.01,2013-02-27 16:30:00,
2013-02-27 11:35:00,39.6,37.8,29.81,WSW,240,6.0,21.0,93,0.08,,---,0.50,VWS V14.01,2013-02-27 16:35:00,
2013-02-27 11:41:00,39.7,37.8,29.81,WSW,238,6.0,21.0,93,0.09,,---,0.51,VWS V14.01,2013-02-27 16:41:00,
2013-02-27 11:46:00,39.6,37.8,29.81,WSW,249,4.0,23.0,93,0.09,,---,0.51,VWS V14.01,2013-02-27 16:46:00,
2013-02-27 11:51:00,39.5,37.7,29.80,West,275,1.0,23.0,93,0.10,,---,0.52,VWS V14.01,2013-02-27 16:51:00,
2013-02-27 11:56:00,39.5,37.7,29.80,SW,229,15.0,23.0,93,0.11,,---,0.53,VWS V14.01,2013-02-27 16:56:00,
2013-02-27 12:01:00,39.5,37.7,29.80,WSW,252,4.0,15.0,93,0.07,,---,0.54,VWS V14.01,2013-02-27 17:01:00,
2013-02-27 12:06:00,39.5,37.9,29.79,WSW,246,0.0,19.0,94,0.08,,---,0.55,VWS V14.01,2013-02-27 17:06:00,
2013-02-27 12:11:00,39.5,37.9,29.78,SW,222,15.0,19.0,94,0.09,,---,0.56,VWS V14.01,2013-02-27 17:11:00,
2013-02-27 12:16:00,39.5,37.9,29.78,SW,229,6.0,23.0,94,0.10,,---,0.57,VWS V14.01,2013-02-27 17:16:00,
2013-02-27 12:21:00,39.5,37.7,29.77,WSW,252,7.0,23.0,93,0.11,,---,0.58,VWS V14.01,2013-02-27 17:21:00,
2013-02-27 12:26:00,39.4,37.5,29.77,WSW,251,9.0,23.0,93,0.12,,---,0.59,VWS V14.01,2013-02-27 17:26:00,
2013-02-27 12:31:00,39.3,37.5,29.77,SW,236,3.0,10.0,93,0.10,,---,0.60,VWS V14.01,2013-02-27 17:31:00,
2013-02-27 12:36:00,39.3,37.5,29.77,WSW,239,9.0,22.0,93,0.10,,---,0.60,VWS V14.01,2013-02-27 17:36:00,
2013-02-27 12:41:00,39.2,37.3,29.77,SW,236,12.0,22.0,93,0.11,,---,0.61,VWS V14.01,2013-02-27 17:41:00,
2013-02-27 12:46:00,39.1,37.2,29.77,WSW,247,11.0,27.0,93,0.11,,---,0.61,VWS V14.01,2013-02-27 17:46:00,
2013-02-27 12:51:00,39.1,37.2,29.76,WSW,255,8.0,27.0,93,0.11,,---,0.61,VWS V14.01,2013-02-27 17:51:00,
2013-02-27 12:56:00,39.0,37.2,29.76,WSW,246,9.0,27.0,93,0.12,,---,0.62,VWS V14.01,2013-02-27 17:56:00,
2013-02-27 13:01:00,38.8,37.0,29.76,West,263,9.0,14.0,93,0.08,,---,0.62,VWS V14.01,2013-02-27 18:01:00,
2013-02-27 13:06:00,38.7,36.8,29.76,SW,231,12.0,19.0,93,0.09,,---,0.63,VWS V14.01,2013-02-27 18:06:00,
2013-02-27 13:11:00,38.5,36.7,29.76,WSW,256,4.0,20.0,93,0.10,,---,0.64,VWS V14.01,2013-02-27 18:11:00,
2013-02-27 13:16:00,38.4,36.6,29.76,WSW,253,15.0,25.0,93,0.10,,---,0.64,VWS V14.01,2013-02-27 18:16:00,
2013-02-27 13:21:00,38.3,36.2,29.75,SSE,163,6.0,25.0,92,0.11,,---,0.65,VWS V14.01,2013-02-27 18:21:00,
2013-02-27 13:26:00,38.1,36.3,29.75,WSW,247,4.0,25.0,93,0.12,,---,0.66,VWS V14.01,2013-02-27 18:26:00,
2013-02-27 13:31:00,38.0,36.2,29.75,SW,227,6.0,11.0,93,0.06,,---,0.66,VWS V14.01,2013-02-27 18:31:00,
2013-02-27 13:36:00,38.0,36.2,29.75,WSW,247,6.0,15.0,93,0.07,,---,0.67,VWS V14.01,2013-02-27 18:36:00,
2013-02-27 13:41:00,37.9,36.1,29.75,WSW,250,13.0,17.0,93,0.08,,---,0.68,VWS V14.01,2013-02-27 18:41:00,
2013-02-27 13:46:00,37.8,36.0,29.74,WSW,238,4.0,17.0,93,0.09,,---,0.69,VWS V14.01,2013-02-27 18:46:00,
2013-02-27 13:51:00,37.8,36.0,29.75,SW,236,7.0,22.0,93,0.10,,---,0.70,VWS V14.01,2013-02-27 18:51:00,
2013-02-27 13:56:00,37.7,35.9,29.75,WSW,240,10.0,22.0,93,0.10,,---,0.70,VWS V14.01,2013-02-27 18:56:00,
2013-02-27 14:01:00,37.7,35.9,29.74,WSW,256,6.0,15.0,93,0.09,,---,0.71,VWS V14.01,2013-02-27 19:01:00,
2013-02-27 14:06:00,37.6,35.8,29.75,West,260,4.0,15.0,93,0.10,,---,0.72,VWS V14.01,2013-02-27 19:06:00,
2013-02-27 14:11:00,37.5,35.7,29.75,West,263,0.0,15.0,93,0.11,,---,0.73,VWS V14.01,2013-02-27 19:11:00,
2013-02-27 14:16:00,37.5,35.7,29.75,WSW,254,4.0,23.0,93,0.12,,---,0.74,VWS V14.01,2013-02-27 19:16:00,
2013-02-27 14:21:00,37.4,35.6,29.74,WSW,243,5.0,23.0,93,0.12,,---,0.74,VWS V14.01,2013-02-27 19:21:00,
2013-02-27 14:26:00,37.3,35.5,29.73,NW,309,6.0,23.0,93,0.13,,---,0.75,VWS V14.01,2013-02-27 19:26:00,
2013-02-27 14:31:00,37.2,35.4,29.74,SW,220,12.0,15.0,93,0.10,,---,0.76,VWS V14.01,2013-02-27 19:31:00,
2013-02-27 14:37:00,37.1,35.3,29.73,WSW,254,9.0,17.0,93,0.10,,---,0.76,VWS V14.01,2013-02-27 19:37:00,
2013-02-27 14:42:00,37.0,35.2,29.74,ENE,67,16.0,17.0,93,0.11,,---,0.77,VWS V14.01,2013-02-27 19:42:00,
2013-02-27 14:47:00,36.9,35.1,29.74,West,266,10.0,23.0,93,0.12,,---,0.78,VWS V14.01,2013-02-27 19:47:00,
2013-02-27 14:52:00,36.8,35.0,29.74,WSW,247,13.0,23.0,93,0.13,,---,0.79,VWS V14.01,2013-02-27 19:52:00,
2013-02-27 14:57:00,36.6,34.8,29.74,SW,226,6.0,23.0,93,0.13,,---,0.79,VWS V14.01,2013-02-27 19:57:00,
2013-02-27 15:02:00,36.5,34.7,29.73,WSW,239,9.0,9.0,93,0.09,,---,0.80,VWS V14.01,2013-02-27 20:02:00,
2013-02-27 15:07:00,36.4,34.6,29.72,West,262,8.0,17.0,93,0.09,,---,0.80,VWS V14.01,2013-02-27 20:07:00,
2013-02-27 15:12:00,36.2,34.4,29.73,WSW,246,2.0,17.0,93,0.10,,---,0.81,VWS V14.01,2013-02-27 20:12:00,
2013-02-27 15:17:00,36.0,34.2,29.73,SW,232,2.0,17.0,93,0.11,,---,0.82,VWS V14.01,2013-02-27 20:17:00,
2013-02-27 15:22:00,35.8,34.0,29.73,WSW,237,1.0,17.0,93,0.12,,---,0.83,VWS V14.01,2013-02-27 20:22:00,
2013-02-27 15:27:00,35.6,33.8,29.72,WSW,237,4.0,17.0,93,0.13,,---,0.84,VWS V14.01,2013-02-27 20:27:00,
2013-02-27 15:32:00,35.4,33.6,29.72,WSW,241,5.0,13.0,93,0.09,,---,0.84,VWS V14.01,2013-02-27 20:32:00,
2013-02-27 15:37:00,35.3,33.5,29.72,SW,227,4.0,15.0,93,0.10,,---,0.85,VWS V14.01,2013-02-27 20:37:00,
2013-02-27 15:42:00,35.2,33.4,29.73,SSW,210,0.0,15.0,93,0.11,,---,0.86,VWS V14.01,2013-02-27 20:42:00,
2013-02-27 15:47:00,35.2,33.7,29.72,WSW,254,6.0,15.0,94,0.12,,---,0.87,VWS V14.01,2013-02-27 20:47:00,
2013-02-27 15:52:00,35.2,33.7,29.72,WSW,246,9.0,15.0,94,0.12,,---,0.87,VWS V14.01,2013-02-27 20:52:00,
2013-02-27 15:57:00,35.2,33.7,29.72,WSW,246,0.0,15.0,94,0.13,,---,0.88,VWS V14.01,2013-02-27 20:57:00,
2013-02-27 16:02:00,35.1,33.5,29.72,WSW,246,5.0,9.0,94,0.10,,---,0.89,VWS V14.01,2013-02-27 21:02:00,
2013-02-27 16:07:00,35.1,33.5,29.71,WSW,248,4.0,10.0,94,0.11,,---,0.90,VWS V14.01,2013-02-27 21:07:00,